Meteo Giornale » Osservazioni meteo Stati Uniti (USA) » Jacksonville Cecil Fld
ore: 01:35 - Osservazioni Meteo Jacksonville Cecil Fld
Lat. 30° 13' N Lon. 81° 52' W Alt. 25 metri s.l.m.
24 °C
Sereno
Temp. 24 Ore
23 °C
32 °C
Nord
0 Km/h
Dew point 24 °C
Umidità 100 %
Visibilità 10 Km
Il sole sorge alle ore 07:04
Il sole tramonta alle ore 19:50
| Data e Ora | Cielo e Fenomeni | T °C | DP °C | Um. % | Pres. hPa | Vis. km | Vento km/h | |
|---|---|---|---|---|---|---|---|---|
| Oggi h: 01:35 | Sereno | 24 | 24 | 100 | 1018 | 10 | N 0 | |
| Oggi h: 01:15 | Sereno | 24 | 24 | 100 | 1018 | 14 | N 0 | |
| Oggi h: 00:55 | Sereno | 24 | 24 | 100 | 1018 | 10 | N 0 | |
| Oggi h: 00:35 | Sereno | 24 | 24 | 100 | 1018 | 10 | N 0 | |
| Oggi h: 00:15 | Sereno | 24 | 24 | 100 | 1018 | 10 | N 0 | |
| Ieri h: 23:55 | Sereno | 25 | 24 | 94 | 1018 | 10 | N 0 | |
| Ieri h: 23:35 | Sereno | 24 | 24 | 100 | 1018 | 10 | N 0 | |
| Ieri h: 23:15 | Sereno | 25 | 24 | 94 | 1018 | 10 | N 0 | |
| Ieri h: 22:50 | Sereno | 26 | 24 | 88 | 1018 | 10 | N 5.5 | |
| Ieri h: 21:50 | Sereno | 26 | 24 | 88 | 1018 | 10 | E 9.3 | |
| Ieri h: 20:50 | Nuvoloso | 27 | 24 | 83 | 1017 | 10 | E/NE 13 | |
| Ieri h: 19:50 | Poco Nuvoloso | 28 | 23 | 74 | 1017 | 10 | E/NE 13 | |
| Ieri h: 18:50 | Nuvoloso | 30 | 24 | 70 | 1017 | 10 | E 14.8 | |
| Ieri h: 17:50 | Nuvoloso | 31 | 23 | 62 | 1017 | 10 | E 18.5 | |
| Ieri h: 16:50 | Molto Nuvoloso | 31 | 24 | 66 | 1017 | 10 | E/NE 16.7 | |
| Ieri h: 15:50 | Molto Nuvoloso | 31 | 24 | 66 | 1016 | 10 | E/NE 16.7 | |
| Ieri h: 14:50 | Molto Nuvoloso | 31 | 24 | 66 | 1017 | 10 | NE 20.3 | |
| Ieri h: 13:50 | Molto Nuvoloso | 32 | 25 | 66 | 1018 | 10 | E 29.6 | |
| Ieri h: 11:50 | Molto Nuvoloso | 30 | 25 | 74 | 1019 | 10 | NE 18.5 | |
| Ieri h: 10:50 | Molto Nuvoloso | 30 | 24 | 70 | 1019 | 10 | N 7.4 | |
| Ieri h: 09:50 | Molto Nuvoloso | 28 | 25 | 83 | 1018 | 10 | N 7.4 | |
| Ieri h: 09:15 | Molto Nuvoloso | 28 | 26 | 88 | 1018 | 10 | N 7.4 | |
| Ieri h: 08:50 | Nuvoloso | 27 | 26 | 94 | 1018 | 10 | N 7.4 | |
| Ieri h: 07:50 | Poco Nuvoloso | 24 | 24 | 100 | 1018 | 10 | N 7.4 | |
| Ieri h: 06:50 | Foschia | 23 | 23 | 100 | 1017 | 8 | N 9.3 | |
| Ieri h: 06:35 | Foschia | 23 | 23 | 100 | 1017 | 2 | N 0 | |
| Ieri h: 06:15 | Nebbia | 23 | 23 | 100 | 1017 | 2 | N 0 | |
| Ieri h: 05:55 | Foschia | 23 | 23 | 100 | 1017 | 10 | N 0 | |
| Ieri h: 05:35 | Nuvoloso | 23 | 23 | 100 | 1017 | 13 | N 0 | |
| Ieri h: 05:15 | Nuvoloso | 24 | 24 | 100 | 1017 | 10 | N 0 | |
| Ieri h: 04:55 | Sereno | 23 | 23 | 100 | 1017 | 13 | N 0 | |
| Ieri h: 04:35 | Sereno | 23 | 23 | 100 | 1017 | 14 | N 0 | |
| Ieri h: 04:15 | Foschia | 23 | 23 | 100 | 1017 | 5 | N 0 | |
| Ieri h: 03:55 | Sereno | 23 | 23 | 100 | 1017 | 14 | N 0 | |
| Ieri h: 03:35 | Sereno | 24 | 24 | 100 | 1017 | 10 | N 0 | |
| Ieri h: 03:15 | Nuvoloso | 24 | 24 | 100 | 1017 | 10 | N 0 | |
| Ieri h: 02:55 | Molto Nuvoloso | 24 | 24 | 100 | 1017 | 10 | N 0 | |
| Ieri h: 02:35 | Molto Nuvoloso | 24 | 24 | 100 | 1017 | 10 | N 0 | |
| Ieri h: 02:15 | Molto Nuvoloso | 24 | 24 | 100 | 1017 | 10 | N 0 | |
| Ieri h: 01:55 | Poco Nuvoloso | 24 | 24 | 100 | 1017 | 10 | N 0 | |
| Ieri h: 01:35 | Molto Nuvoloso | 24 | 24 | 100 | 1018 | 10 | N 0 | |



